sensor_id;sensor_type;location;lat;lon;timestamp;P1;durP1;ratioP1;P2;durP2;ratioP2
36221;SDS011;22266;52.340;4.962;2023-03-01T00:01:21;17.00;;;14.00;;
36221;SDS011;22266;52.340;4.962;2023-03-01T00:03:50;18.50;;;16.75;;
36221;SDS011;22266;52.340;4.962;2023-03-01T00:06:17;20.25;;;18.00;;
36221;SDS011;22266;52.340;4.962;2023-03-01T00:08:44;15.25;;;15.25;;
36221;SDS011;22266;52.340;4.962;2023-03-01T00:11:18;24.25;;;19.50;;
36221;SDS011;22266;52.340;4.962;2023-03-01T00:13:48;22.50;;;20.50;;
36221;SDS011;22266;52.340;4.962;2023-03-01T00:16:16;23.00;;;19.00;;
36221;SDS011;22266;52.340;4.962;2023-03-01T00:18:48;19.75;;;16.25;;
36221;SDS011;22266;52.340;4.962;2023-03-01T00:21:14;25.25;;;19.25;;
36221;SDS011;22266;52.340;4.962;2023-03-01T00:23:41;19.75;;;19.75;;
36221;SDS011;22266;52.340;4.962;2023-03-01T00:26:08;21.50;;;20.25;;
36221;SDS011;22266;52.340;4.962;2023-03-01T00:28:38;21.00;;;19.25;;
36221;SDS011;22266;52.340;4.962;2023-03-01T00:31:07;21.50;;;19.75;;
36221;SDS011;22266;52.340;4.962;2023-03-01T00:33:37;26.00;;;23.25;;
36221;SDS011;22266;52.340;4.962;2023-03-01T00:36:04;22.75;;;21.00;;
36221;SDS011;22266;52.340;4.962;2023-03-01T00:38:34;25.75;;;23.00;;
36221;SDS011;22266;52.340;4.962;2023-03-01T00:41:03;19.25;;;17.50;;
36221;SDS011;22266;52.340;4.962;2023-03-01T00:43:34;23.50;;;19.00;;
36221;SDS011;22266;52.340;4.962;2023-03-01T00:46:04;23.00;;;20.75;;
36221;SDS011;22266;52.340;4.962;2023-03-01T00:48:38;28.50;;;22.75;;
36221;SDS011;22266;52.340;4.962;2023-03-01T00:51:05;21.75;;;21.25;;
36221;SDS011;22266;52.340;4.962;2023-03-01T00:53:36;21.50;;;18.50;;
36221;SDS011;22266;52.340;4.962;2023-03-01T00:56:03;22.25;;;19.00;;
36221;SDS011;22266;52.340;4.962;2023-03-01T00:58:31;24.75;;;21.00;;
36221;SDS011;22266;52.340;4.962;2023-03-01T01:00:58;19.50;;;18.75;;
36221;SDS011;22266;52.340;4.962;2023-03-01T01:03:24;24.50;;;19.00;;
36221;SDS011;22266;52.340;4.962;2023-03-01T01:05:51;25.00;;;22.00;;
36221;SDS011;22266;52.340;4.962;2023-03-01T01:08:19;19.75;;;17.00;;
36221;SDS011;22266;52.340;4.962;2023-03-01T01:10:46;23.00;;;18.25;;
36221;SDS011;22266;52.340;4.962;2023-03-01T01:13:13;29.25;;;20.25;;
36221;SDS011;22266;52.340;4.962;2023-03-01T01:15:40;25.00;;;22.25;;
36221;SDS011;22266;52.340;4.962;2023-03-01T01:18:06;27.00;;;24.75;;
36221;SDS011;22266;52.340;4.962;2023-03-01T01:20:34;21.00;;;18.00;;
36221;SDS011;22266;52.340;4.962;2023-03-01T01:23:01;24.75;;;20.75;;
36221;SDS011;22266;52.340;4.962;2023-03-01T01:25:28;26.50;;;20.00;;
36221;SDS011;22266;52.340;4.962;2023-03-01T01:27:54;29.50;;;23.75;;
36221;SDS011;22266;52.340;4.962;2023-03-01T01:30:21;24.00;;;19.00;;
36221;SDS011;22266;52.340;4.962;2023-03-01T01:32:47;22.75;;;22.75;;
36221;SDS011;22266;52.340;4.962;2023-03-01T01:35:13;32.50;;;22.25;;
36221;SDS011;22266;52.340;4.962;2023-03-01T01:37:40;22.75;;;19.50;;
36221;SDS011;22266;52.340;4.962;2023-03-01T01:40:06;28.00;;;21.75;;
36221;SDS011;22266;52.340;4.962;2023-03-01T01:42:35;23.00;;;22.25;;
36221;SDS011;22266;52.340;4.962;2023-03-01T01:48:00;26.75;;;21.75;;
36221;SDS011;22266;52.340;4.962;2023-03-01T01:50:31;24.25;;;18.00;;
36221;SDS011;22266;52.340;4.962;2023-03-01T01:53:09;25.75;;;22.75;;
36221;SDS011;22266;52.340;4.962;2023-03-01T01:55:42;24.50;;;24.00;;
36221;SDS011;22266;52.340;4.962;2023-03-01T01:58:14;23.25;;;20.75;;
36221;SDS011;22266;52.340;4.962;2023-03-01T02:00:43;29.00;;;22.00;;
36221;SDS011;22266;52.340;4.962;2023-03-01T02:03:11;24.50;;;21.75;;
36221;SDS011;22266;52.340;4.962;2023-03-01T02:05:47;24.50;;;21.75;;
36221;SDS011;22266;52.340;4.962;2023-03-01T02:08:21;25.00;;;23.75;;
36221;SDS011;22266;52.340;4.962;2023-03-01T02:10:51;26.75;;;22.00;;
36221;SDS011;22266;52.340;4.962;2023-03-01T02:13:18;25.25;;;20.50;;
36221;SDS011;22266;52.340;4.962;2023-03-01T02:15:45;22.00;;;20.00;;
36221;SDS011;22266;52.340;4.962;2023-03-01T02:18:13;20.00;;;19.50;;
36221;SDS011;22266;52.340;4.962;2023-03-01T02:21:01;24.75;;;18.75;;
36221;SDS011;22266;52.340;4.962;2023-03-01T02:23:30;27.50;;;25.25;;
36221;SDS011;22266;52.340;4.962;2023-03-01T02:26:01;24.75;;;22.00;;
36221;SDS011;22266;52.340;4.962;2023-03-01T02:28:34;26.25;;;26.00;;
36221;SDS011;22266;52.340;4.962;2023-03-01T02:31:04;29.00;;;25.00;;
36221;SDS011;22266;52.340;4.962;2023-03-01T02:33:51;24.75;;;21.75;;
36221;SDS011;22266;52.340;4.962;2023-03-01T02:36:21;28.00;;;25.50;;
36221;SDS011;22266;52.340;4.962;2023-03-01T02:38:54;24.25;;;21.25;;
36221;SDS011;22266;52.340;4.962;2023-03-01T02:41:24;26.00;;;21.75;;
36221;SDS011;22266;52.340;4.962;2023-03-01T02:43:55;26.00;;;26.00;;
36221;SDS011;22266;52.340;4.962;2023-03-01T02:46:22;26.25;;;24.00;;
36221;SDS011;22266;52.340;4.962;2023-03-01T02:48:52;29.75;;;27.25;;
36221;SDS011;22266;52.340;4.962;2023-03-01T02:56:54;21.25;;;18.50;;
36221;SDS011;22266;52.340;4.962;2023-03-01T02:59:23;27.50;;;26.00;;
36221;SDS011;22266;52.340;4.962;2023-03-01T03:01:53;30.75;;;25.00;;
36221;SDS011;22266;52.340;4.962;2023-03-01T03:04:19;30.25;;;24.25;;
36221;SDS011;22266;52.340;4.962;2023-03-01T03:06:48;31.50;;;25.50;;
36221;SDS011;22266;52.340;4.962;2023-03-01T03:09:16;31.50;;;28.50;;
36221;SDS011;22266;52.340;4.962;2023-03-01T03:11:45;30.25;;;24.25;;
36221;SDS011;22266;52.340;4.962;2023-03-01T03:14:13;27.50;;;26.00;;
36221;SDS011;22266;52.340;4.962;2023-03-01T03:16:44;28.50;;;24.00;;
36221;SDS011;22266;52.340;4.962;2023-03-01T03:19:13;23.75;;;21.75;;
36221;SDS011;22266;52.340;4.962;2023-03-01T03:21:39;27.75;;;20.75;;
36221;SDS011;22266;52.340;4.962;2023-03-01T03:24:06;29.25;;;25.00;;
36221;SDS011;22266;52.340;4.962;2023-03-01T03:26:32;30.75;;;23.75;;
36221;SDS011;22266;52.340;4.962;2023-03-01T03:28:59;30.50;;;23.25;;
36221;SDS011;22266;52.340;4.962;2023-03-01T03:31:25;30.00;;;22.00;;
36221;SDS011;22266;52.340;4.962;2023-03-01T03:33:52;26.75;;;22.50;;
36221;SDS011;22266;52.340;4.962;2023-03-01T03:36:20;25.00;;;23.50;;
36221;SDS011;22266;52.340;4.962;2023-03-01T03:38:49;24.50;;;22.50;;
36221;SDS011;22266;52.340;4.962;2023-03-01T03:41:15;27.75;;;26.50;;
36221;SDS011;22266;52.340;4.962;2023-03-01T03:43:42;26.00;;;20.50;;
36221;SDS011;22266;52.340;4.962;2023-03-01T03:46:10;27.50;;;24.50;;
36221;SDS011;22266;52.340;4.962;2023-03-01T03:48:38;30.75;;;27.50;;
36221;SDS011;22266;52.340;4.962;2023-03-01T03:51:09;23.50;;;21.50;;
36221;SDS011;22266;52.340;4.962;2023-03-01T03:53:36;29.00;;;27.75;;
36221;SDS011;22266;52.340;4.962;2023-03-01T03:56:03;29.00;;;24.75;;
36221;SDS011;22266;52.340;4.962;2023-03-01T03:58:31;25.00;;;25.00;;
36221;SDS011;22266;52.340;4.962;2023-03-01T04:00:58;30.75;;;27.50;;
36221;SDS011;22266;52.340;4.962;2023-03-01T04:03:27;28.50;;;24.50;;
36221;SDS011;22266;52.340;4.962;2023-03-01T04:05:56;34.25;;;28.25;;
36221;SDS011;22266;52.340;4.962;2023-03-01T04:08:24;28.00;;;26.00;;
36221;SDS011;22266;52.340;4.962;2023-03-01T04:10:51;31.75;;;29.25;;
36221;SDS011;22266;52.340;4.962;2023-03-01T04:13:22;33.25;;;26.50;;
36221;SDS011;22266;52.340;4.962;2023-03-01T04:15:51;25.25;;;24.75;;
36221;SDS011;22266;52.340;4.962;2023-03-01T04:18:20;36.75;;;30.75;;
36221;SDS011;22266;52.340;4.962;2023-03-01T04:20:48;31.00;;;21.50;;
36221;SDS011;22266;52.340;4.962;2023-03-01T04:23:16;34.50;;;27.25;;
36221;SDS011;22266;52.340;4.962;2023-03-01T04:25:47;26.50;;;24.50;;
36221;SDS011;22266;52.340;4.962;2023-03-01T04:28:22;31.00;;;24.50;;
36221;SDS011;22266;52.340;4.962;2023-03-01T04:31:03;24.00;;;21.25;;
36221;SDS011;22266;52.340;4.962;2023-03-01T04:33:40;21.25;;;20.00;;
36221;SDS011;22266;52.340;4.962;2023-03-01T04:36:07;24.50;;;23.50;;
36221;SDS011;22266;52.340;4.962;2023-03-01T04:38:36;42.50;;;34.50;;
36221;SDS011;22266;52.340;4.962;2023-03-01T04:41:04;26.25;;;24.00;;
36221;SDS011;22266;52.340;4.962;2023-03-01T04:43:31;34.75;;;26.50;;
36221;SDS011;22266;52.340;4.962;2023-03-01T04:46:04;27.00;;;24.50;;
36221;SDS011;22266;52.340;4.962;2023-03-01T04:48:37;33.25;;;27.50;;
36221;SDS011;22266;52.340;4.962;2023-03-01T04:51:05;27.25;;;25.75;;
36221;SDS011;22266;52.340;4.962;2023-03-01T04:53:32;24.50;;;24.50;;
36221;SDS011;22266;52.340;4.962;2023-03-01T04:55:59;33.00;;;29.00;;
36221;SDS011;22266;52.340;4.962;2023-03-01T04:58:26;26.00;;;23.75;;
36221;SDS011;22266;52.340;4.962;2023-03-01T05:00:53;36.25;;;27.75;;
36221;SDS011;22266;52.340;4.962;2023-03-01T05:03:21;34.50;;;23.25;;
36221;SDS011;22266;52.340;4.962;2023-03-01T05:05:49;32.00;;;26.50;;
36221;SDS011;22266;52.340;4.962;2023-03-01T05:08:18;25.50;;;23.00;;
36221;SDS011;22266;52.340;4.962;2023-03-01T05:10:50;37.25;;;30.50;;
36221;SDS011;22266;52.340;4.962;2023-03-01T05:13:18;25.25;;;20.75;;
36221;SDS011;22266;52.340;4.962;2023-03-01T05:15:56;32.75;;;28.50;;
36221;SDS011;22266;52.340;4.962;2023-03-01T05:18:24;25.00;;;22.50;;
36221;SDS011;22266;52.340;4.962;2023-03-01T05:20:52;40.25;;;28.00;;
36221;SDS011;22266;52.340;4.962;2023-03-01T05:23:22;29.50;;;23.75;;
36221;SDS011;22266;52.340;4.962;2023-03-01T05:25:49;29.50;;;26.75;;
36221;SDS011;22266;52.340;4.962;2023-03-01T05:28:18;28.25;;;23.75;;
36221;SDS011;22266;52.340;4.962;2023-03-01T05:30:46;31.75;;;21.75;;
36221;SDS011;22266;52.340;4.962;2023-03-01T05:33:13;41.75;;;31.50;;
36221;SDS011;22266;52.340;4.962;2023-03-01T05:35:40;32.25;;;24.75;;
36221;SDS011;22266;52.340;4.962;2023-03-01T05:38:09;29.50;;;24.00;;
36221;SDS011;22266;52.340;4.962;2023-03-01T05:40:39;31.50;;;28.75;;
36221;SDS011;22266;52.340;4.962;2023-03-01T05:43:07;36.25;;;31.50;;
36221;SDS011;22266;52.340;4.962;2023-03-01T05:45:35;30.50;;;27.75;;
36221;SDS011;22266;52.340;4.962;2023-03-01T05:48:03;34.50;;;33.00;;
36221;SDS011;22266;52.340;4.962;2023-03-01T05:50:35;29.75;;;26.50;;
36221;SDS011;22266;52.340;4.962;2023-03-01T05:53:05;28.50;;;27.75;;
36221;SDS011;22266;52.340;4.962;2023-03-01T05:55:39;27.25;;;24.50;;
36221;SDS011;22266;52.340;4.962;2023-03-01T05:58:07;32.50;;;27.25;;
36221;SDS011;22266;52.340;4.962;2023-03-01T06:00:36;33.25;;;29.25;;
36221;SDS011;22266;52.340;4.962;2023-03-01T06:03:02;28.50;;;27.25;;
36221;SDS011;22266;52.340;4.962;2023-03-01T06:05:29;37.25;;;31.50;;
36221;SDS011;22266;52.340;4.962;2023-03-01T06:07:58;32.50;;;26.50;;
36221;SDS011;22266;52.340;4.962;2023-03-01T06:10:25;42.75;;;33.25;;
36221;SDS011;22266;52.340;4.962;2023-03-01T06:12:52;32.50;;;27.25;;
36221;SDS011;22266;52.340;4.962;2023-03-01T06:15:19;39.50;;;30.25;;
36221;SDS011;22266;52.340;4.962;2023-03-01T06:17:46;38.00;;;30.00;;
36221;SDS011;22266;52.340;4.962;2023-03-01T06:20:20;27.25;;;26.50;;
36221;SDS011;22266;52.340;4.962;2023-03-01T06:22:48;40.00;;;34.75;;
36221;SDS011;22266;52.340;4.962;2023-03-01T06:25:19;28.50;;;28.50;;
36221;SDS011;22266;52.340;4.962;2023-03-01T06:27:48;36.75;;;30.25;;
36221;SDS011;22266;52.340;4.962;2023-03-01T06:30:15;35.25;;;27.75;;
36221;SDS011;22266;52.340;4.962;2023-03-01T06:32:43;33.75;;;30.25;;
36221;SDS011;22266;52.340;4.962;2023-03-01T06:35:10;33.25;;;31.00;;
36221;SDS011;22266;52.340;4.962;2023-03-01T06:37:38;32.25;;;28.25;;
36221;SDS011;22266;52.340;4.962;2023-03-01T06:40:05;27.25;;;25.50;;
36221;SDS011;22266;52.340;4.962;2023-03-01T06:42:34;35.75;;;31.75;;
36221;SDS011;22266;52.340;4.962;2023-03-01T06:45:02;33.50;;;28.00;;
36221;SDS011;22266;52.340;4.962;2023-03-01T06:47:30;30.75;;;26.75;;
36221;SDS011;22266;52.340;4.962;2023-03-01T06:49:57;22.75;;;21.50;;
36221;SDS011;22266;52.340;4.962;2023-03-01T06:52:23;36.50;;;30.50;;
36221;SDS011;22266;52.340;4.962;2023-03-01T06:54:50;33.75;;;29.00;;
36221;SDS011;22266;52.340;4.962;2023-03-01T06:57:16;38.75;;;28.00;;
36221;SDS011;22266;52.340;4.962;2023-03-01T06:59:43;40.00;;;36.00;;
36221;SDS011;22266;52.340;4.962;2023-03-01T07:02:12;43.25;;;34.25;;
36221;SDS011;22266;52.340;4.962;2023-03-01T07:04:40;32.75;;;30.75;;
36221;SDS011;22266;52.340;4.962;2023-03-01T07:07:07;39.75;;;30.75;;
36221;SDS011;22266;52.340;4.962;2023-03-01T07:09:33;32.75;;;29.25;;
36221;SDS011;22266;52.340;4.962;2023-03-01T07:12:00;25.75;;;22.00;;
36221;SDS011;22266;52.340;4.962;2023-03-01T07:14:27;47.00;;;36.00;;
36221;SDS011;22266;52.340;4.962;2023-03-01T07:16:54;43.50;;;42.50;;
36221;SDS011;22266;52.340;4.962;2023-03-01T07:19:21;39.00;;;36.75;;
36221;SDS011;22266;52.340;4.962;2023-03-01T07:21:48;37.50;;;33.00;;
36221;SDS011;22266;52.340;4.962;2023-03-01T07:24:15;29.50;;;27.50;;
36221;SDS011;22266;52.340;4.962;2023-03-01T07:26:41;33.50;;;28.00;;
36221;SDS011;22266;52.340;4.962;2023-03-01T07:29:09;34.75;;;31.50;;
36221;SDS011;22266;52.340;4.962;2023-03-01T07:31:36;30.75;;;28.50;;
36221;SDS011;22266;52.340;4.962;2023-03-01T07:34:03;37.25;;;29.00;;
36221;SDS011;22266;52.340;4.962;2023-03-01T07:36:29;35.00;;;30.25;;
36221;SDS011;22266;52.340;4.962;2023-03-01T07:38:56;31.25;;;29.50;;
36221;SDS011;22266;52.340;4.962;2023-03-01T07:41:23;30.00;;;27.50;;
36221;SDS011;22266;52.340;4.962;2023-03-01T07:43:50;21.75;;;21.00;;
36221;SDS011;22266;52.340;4.962;2023-03-01T07:46:17;23.00;;;23.00;;
36221;SDS011;22266;52.340;4.962;2023-03-01T07:48:45;24.75;;;22.25;;
36221;SDS011;22266;52.340;4.962;2023-03-01T07:51:11;24.00;;;22.00;;
36221;SDS011;22266;52.340;4.962;2023-03-01T07:53:38;26.75;;;21.75;;
36221;SDS011;22266;52.340;4.962;2023-03-01T07:58:33;21.00;;;19.75;;
36221;SDS011;22266;52.340;4.962;2023-03-01T08:01:04;23.25;;;19.75;;
36221;SDS011;22266;52.340;4.962;2023-03-01T08:03:32;24.50;;;21.50;;
36221;SDS011;22266;52.340;4.962;2023-03-01T08:05:59;25.00;;;22.50;;
36221;SDS011;22266;52.340;4.962;2023-03-01T08:08:26;20.50;;;18.00;;
36221;SDS011;22266;52.340;4.962;2023-03-01T08:10:55;27.75;;;19.50;;
36221;SDS011;22266;52.340;4.962;2023-03-01T08:13:22;23.00;;;20.50;;
36221;SDS011;22266;52.340;4.962;2023-03-01T08:15:49;27.75;;;23.00;;
36221;SDS011;22266;52.340;4.962;2023-03-01T08:18:16;30.75;;;23.25;;
36221;SDS011;22266;52.340;4.962;2023-03-01T08:20:43;31.75;;;28.50;;
36221;SDS011;22266;52.340;4.962;2023-03-01T08:23:10;20.75;;;20.25;;
36221;SDS011;22266;52.340;4.962;2023-03-01T08:25:36;35.50;;;28.50;;
36221;SDS011;22266;52.340;4.962;2023-03-01T08:28:03;23.25;;;22.50;;
36221;SDS011;22266;52.340;4.962;2023-03-01T08:30:30;30.75;;;24.75;;
36221;SDS011;22266;52.340;4.962;2023-03-01T08:32:57;36.75;;;32.25;;
36221;SDS011;22266;52.340;4.962;2023-03-01T08:35:24;33.00;;;30.50;;
36221;SDS011;22266;52.340;4.962;2023-03-01T08:37:51;30.25;;;29.75;;
36221;SDS011;22266;52.340;4.962;2023-03-01T08:40:17;29.75;;;26.00;;
36221;SDS011;22266;52.340;4.962;2023-03-01T08:42:43;34.50;;;28.50;;
36221;SDS011;22266;52.340;4.962;2023-03-01T08:45:10;28.00;;;25.00;;
36221;SDS011;22266;52.340;4.962;2023-03-01T08:47:37;29.25;;;24.75;;
36221;SDS011;22266;52.340;4.962;2023-03-01T08:50:04;34.50;;;29.75;;
36221;SDS011;22266;52.340;4.962;2023-03-01T08:52:32;36.50;;;30.50;;
36221;SDS011;22266;52.340;4.962;2023-03-01T08:54:58;33.75;;;26.75;;
36221;SDS011;22266;52.340;4.962;2023-03-01T08:57:27;32.25;;;29.25;;
36221;SDS011;22266;52.340;4.962;2023-03-01T08:59:53;25.75;;;23.50;;
36221;SDS011;22266;52.340;4.962;2023-03-01T09:02:22;23.75;;;21.75;;
36221;SDS011;22266;52.340;4.962;2023-03-01T09:04:48;24.75;;;21.75;;
36221;SDS011;22266;52.340;4.962;2023-03-01T09:07:15;32.50;;;26.50;;
36221;SDS011;22266;52.340;4.962;2023-03-01T09:09:41;27.25;;;23.50;;
36221;SDS011;22266;52.340;4.962;2023-03-01T09:12:08;24.75;;;21.75;;
36221;SDS011;22266;52.340;4.962;2023-03-01T09:14:34;23.00;;;22.25;;
36221;SDS011;22266;52.340;4.962;2023-03-01T09:17:03;29.75;;;24.75;;
36221;SDS011;22266;52.340;4.962;2023-03-01T09:19:29;38.50;;;29.00;;
36221;SDS011;22266;52.340;4.962;2023-03-01T09:21:56;32.00;;;27.00;;
36221;SDS011;22266;52.340;4.962;2023-03-01T09:24:24;30.75;;;23.75;;
36221;SDS011;22266;52.340;4.962;2023-03-01T09:26:53;33.75;;;24.50;;
36221;SDS011;22266;52.340;4.962;2023-03-01T09:29:21;33.50;;;28.25;;
36221;SDS011;22266;52.340;4.962;2023-03-01T09:31:48;35.50;;;30.75;;
36221;SDS011;22266;52.340;4.962;2023-03-01T09:34:15;37.75;;;29.25;;
36221;SDS011;22266;52.340;4.962;2023-03-01T09:36:45;38.75;;;33.00;;
36221;SDS011;22266;52.340;4.962;2023-03-01T09:39:11;35.50;;;33.00;;
36221;SDS011;22266;52.340;4.962;2023-03-01T09:46:43;33.25;;;29.75;;
36221;SDS011;22266;52.340;4.962;2023-03-01T09:49:15;34.00;;;29.25;;
36221;SDS011;22266;52.340;4.962;2023-03-01T09:51:55;32.00;;;27.50;;
36221;SDS011;22266;52.340;4.962;2023-03-01T09:54:25;36.75;;;32.75;;
36221;SDS011;22266;52.340;4.962;2023-03-01T09:56:56;33.00;;;31.50;;
36221;SDS011;22266;52.340;4.962;2023-03-01T09:59:37;30.00;;;29.25;;
36221;SDS011;22266;52.340;4.962;2023-03-01T10:05:14;39.75;;;30.75;;
36221;SDS011;22266;52.340;4.962;2023-03-01T10:07:58;35.00;;;28.00;;
36221;SDS011;22266;52.340;4.962;2023-03-01T10:10:47;35.75;;;32.75;;
36221;SDS011;22266;52.340;4.962;2023-03-01T10:13:16;36.75;;;30.50;;
36221;SDS011;22266;52.340;4.962;2023-03-01T10:15:47;40.00;;;34.75;;
36221;SDS011;22266;52.340;4.962;2023-03-01T10:18:23;38.50;;;30.50;;
36221;SDS011;22266;52.340;4.962;2023-03-01T10:21:00;33.00;;;28.50;;
36221;SDS011;22266;52.340;4.962;2023-03-01T10:23:30;32.25;;;28.50;;
36221;SDS011;22266;52.340;4.962;2023-03-01T10:29:06;47.75;;;41.00;;
36221;SDS011;22266;52.340;4.962;2023-03-01T10:34:19;39.25;;;33.50;;
36221;SDS011;22266;52.340;4.962;2023-03-01T10:36:52;46.00;;;32.00;;
36221;SDS011;22266;52.340;4.962;2023-03-01T10:39:23;36.50;;;28.00;;
36221;SDS011;22266;52.340;4.962;2023-03-01T10:41:56;32.75;;;27.50;;
36221;SDS011;22266;52.340;4.962;2023-03-01T10:44:35;37.00;;;27.75;;
36221;SDS011;22266;52.340;4.962;2023-03-01T10:47:03;34.25;;;31.75;;
36221;SDS011;22266;52.340;4.962;2023-03-01T10:49:30;34.25;;;30.50;;
36221;SDS011;22266;52.340;4.962;2023-03-01T10:51:57;34.75;;;32.50;;
36221;SDS011;22266;52.340;4.962;2023-03-01T10:54:45;44.00;;;33.50;;
36221;SDS011;22266;52.340;4.962;2023-03-01T10:57:33;43.50;;;34.00;;
36221;SDS011;22266;52.340;4.962;2023-03-01T11:00:17;37.25;;;29.75;;
36221;SDS011;22266;52.340;4.962;2023-03-01T11:02:49;49.00;;;40.25;;
36221;SDS011;22266;52.340;4.962;2023-03-01T11:05:25;42.25;;;40.00;;
36221;SDS011;22266;52.340;4.962;2023-03-01T11:07:55;40.25;;;37.75;;
36221;SDS011;22266;52.340;4.962;2023-03-01T11:10:26;50.00;;;38.50;;
36221;SDS011;22266;52.340;4.962;2023-03-01T11:13:08;47.50;;;37.75;;
36221;SDS011;22266;52.340;4.962;2023-03-01T11:18:32;44.25;;;40.50;;
36221;SDS011;22266;52.340;4.962;2023-03-01T11:21:13;36.75;;;32.75;;
36221;SDS011;22266;52.340;4.962;2023-03-01T11:23:42;45.00;;;37.00;;
36221;SDS011;22266;52.340;4.962;2023-03-01T11:26:11;43.50;;;35.25;;
36221;SDS011;22266;52.340;4.962;2023-03-01T11:28:41;43.50;;;35.75;;
36221;SDS011;22266;52.340;4.962;2023-03-01T11:31:11;40.50;;;35.75;;
36221;SDS011;22266;52.340;4.962;2023-03-01T11:33:47;45.75;;;38.00;;
36221;SDS011;22266;52.340;4.962;2023-03-01T11:36:27;55.75;;;44.50;;
36221;SDS011;22266;52.340;4.962;2023-03-01T11:39:02;47.00;;;38.75;;
36221;SDS011;22266;52.340;4.962;2023-03-01T11:41:37;44.50;;;39.50;;
36221;SDS011;22266;52.340;4.962;2023-03-01T11:44:16;47.25;;;36.25;;
36221;SDS011;22266;52.340;4.962;2023-03-01T11:46:51;44.75;;;40.25;;
36221;SDS011;22266;52.340;4.962;2023-03-01T11:52:18;50.00;;;35.25;;
36221;SDS011;22266;52.340;4.962;2023-03-01T11:55:40;41.75;;;35.75;;
36221;SDS011;22266;52.340;4.962;2023-03-01T12:01:06;42.00;;;38.00;;
36221;SDS011;22266;52.340;4.962;2023-03-01T12:06:43;41.25;;;33.50;;
36221;SDS011;22266;52.340;4.962;2023-03-01T12:12:47;32.00;;;29.50;;
36221;SDS011;22266;52.340;4.962;2023-03-01T12:26:30;37.75;;;37.50;;
36221;SDS011;22266;52.340;4.962;2023-03-01T12:34:43;34.75;;;31.00;;
36221;SDS011;22266;52.340;4.962;2023-03-01T12:37:49;39.00;;;31.25;;
36221;SDS011;22266;52.340;4.962;2023-03-01T12:40:33;32.25;;;30.50;;
36221;SDS011;22266;52.340;4.962;2023-03-01T12:47:02;30.00;;;26.50;;
36221;SDS011;22266;52.340;4.962;2023-03-01T12:49:34;31.00;;;28.00;;
36221;SDS011;22266;52.340;4.962;2023-03-01T12:54:39;31.75;;;29.00;;
36221;SDS011;22266;52.340;4.962;2023-03-01T12:59:48;29.75;;;24.75;;
36221;SDS011;22266;52.340;4.962;2023-03-01T13:02:36;29.00;;;24.00;;
36221;SDS011;22266;52.340;4.962;2023-03-01T13:11:01;38.00;;;33.00;;
36221;SDS011;22266;52.340;4.962;2023-03-01T13:13:30;41.50;;;33.00;;
36221;SDS011;22266;52.340;4.962;2023-03-01T13:15:57;38.00;;;32.25;;
36221;SDS011;22266;52.340;4.962;2023-03-01T13:18:43;31.25;;;27.50;;
36221;SDS011;22266;52.340;4.962;2023-03-01T13:21:10;34.25;;;33.50;;
36221;SDS011;22266;52.340;4.962;2023-03-01T13:23:37;43.75;;;34.50;;
36221;SDS011;22266;52.340;4.962;2023-03-01T13:33:42;34.00;;;29.00;;
36221;SDS011;22266;52.340;4.962;2023-03-01T13:39:26;38.75;;;34.75;;
36221;SDS011;22266;52.340;4.962;2023-03-01T13:41:54;24.25;;;24.25;;
36221;SDS011;22266;52.340;4.962;2023-03-01T13:44:26;33.50;;;28.50;;
36221;SDS011;22266;52.340;4.962;2023-03-01T13:46:59;30.75;;;26.75;;
36221;SDS011;22266;52.340;4.962;2023-03-01T13:50:15;39.00;;;33.25;;
36221;SDS011;22266;52.340;4.962;2023-03-01T13:52:40;35.00;;;32.25;;
36221;SDS011;22266;52.340;4.962;2023-03-01T13:58:32;29.25;;;27.25;;
36221;SDS011;22266;52.340;4.962;2023-03-01T14:01:25;27.00;;;26.00;;
36221;SDS011;22266;52.340;4.962;2023-03-01T14:04:03;35.25;;;30.50;;
36221;SDS011;22266;52.340;4.962;2023-03-01T14:06:43;23.00;;;19.75;;
36221;SDS011;22266;52.340;4.962;2023-03-01T14:09:14;28.00;;;20.75;;
36221;SDS011;22266;52.340;4.962;2023-03-01T14:17:14;19.50;;;17.00;;
36221;SDS011;22266;52.340;4.962;2023-03-01T14:19:55;25.50;;;20.75;;
36221;SDS011;22266;52.340;4.962;2023-03-01T14:22:25;21.75;;;21.75;;
36221;SDS011;22266;52.340;4.962;2023-03-01T14:24:55;19.00;;;19.00;;
36221;SDS011;22266;52.340;4.962;2023-03-01T14:27:32;18.00;;;16.25;;
36221;SDS011;22266;52.340;4.962;2023-03-01T14:30:03;17.00;;;15.00;;
36221;SDS011;22266;52.340;4.962;2023-03-01T14:32:39;19.00;;;19.00;;
36221;SDS011;22266;52.340;4.962;2023-03-01T14:35:19;24.00;;;23.00;;
36221;SDS011;22266;52.340;4.962;2023-03-01T14:37:54;25.00;;;21.50;;
36221;SDS011;22266;52.340;4.962;2023-03-01T14:40:25;23.50;;;19.25;;
36221;SDS011;22266;52.340;4.962;2023-03-01T14:42:53;27.75;;;22.25;;
36221;SDS011;22266;52.340;4.962;2023-03-01T14:45:23;22.50;;;20.25;;
36221;SDS011;22266;52.340;4.962;2023-03-01T14:47:53;22.00;;;21.50;;
36221;SDS011;22266;52.340;4.962;2023-03-01T14:50:23;21.50;;;19.75;;
36221;SDS011;22266;52.340;4.962;2023-03-01T14:52:54;28.00;;;23.25;;
36221;SDS011;22266;52.340;4.962;2023-03-01T14:55:28;19.25;;;19.25;;
36221;SDS011;22266;52.340;4.962;2023-03-01T14:57:59;16.75;;;14.75;;
36221;SDS011;22266;52.340;4.962;2023-03-01T15:00:29;15.50;;;15.25;;
36221;SDS011;22266;52.340;4.962;2023-03-01T15:03:00;18.25;;;15.75;;
36221;SDS011;22266;52.340;4.962;2023-03-01T15:05:35;13.25;;;13.25;;
36221;SDS011;22266;52.340;4.962;2023-03-01T15:08:03;16.50;;;13.50;;
36221;SDS011;22266;52.340;4.962;2023-03-01T15:10:31;13.50;;;11.75;;
36221;SDS011;22266;52.340;4.962;2023-03-01T15:13:12;20.00;;;14.50;;
36221;SDS011;22266;52.340;4.962;2023-03-01T15:15:41;23.00;;;16.25;;
36221;SDS011;22266;52.340;4.962;2023-03-01T15:18:21;17.25;;;16.75;;
36221;SDS011;22266;52.340;4.962;2023-03-01T15:20:53;19.00;;;17.75;;
36221;SDS011;22266;52.340;4.962;2023-03-01T15:25:50;19.00;;;16.50;;
36221;SDS011;22266;52.340;4.962;2023-03-01T15:28:29;17.50;;;14.50;;
36221;SDS011;22266;52.340;4.962;2023-03-01T15:31:18;14.25;;;13.25;;
36221;SDS011;22266;52.340;4.962;2023-03-01T15:33:47;12.75;;;11.50;;
36221;SDS011;22266;52.340;4.962;2023-03-01T15:36:36;12.75;;;12.75;;
36221;SDS011;22266;52.340;4.962;2023-03-01T15:39:53;12.50;;;12.50;;
36221;SDS011;22266;52.340;4.962;2023-03-01T15:42:05;18.75;;;16.00;;
36221;SDS011;22266;52.340;4.962;2023-03-01T15:44:38;18.00;;;18.00;;
36221;SDS011;22266;52.340;4.962;2023-03-01T15:50:20;14.25;;;13.25;;
36221;SDS011;22266;52.340;4.962;2023-03-01T15:52:49;18.00;;;15.50;;
36221;SDS011;22266;52.340;4.962;2023-03-01T15:55:19;14.75;;;13.25;;
36221;SDS011;22266;52.340;4.962;2023-03-01T15:57:47;17.25;;;15.00;;
36221;SDS011;22266;52.340;4.962;2023-03-01T16:00:15;18.75;;;17.75;;
36221;SDS011;22266;52.340;4.962;2023-03-01T16:02:43;21.00;;;15.25;;
36221;SDS011;22266;52.340;4.962;2023-03-01T16:05:20;16.50;;;15.25;;
36221;SDS011;22266;52.340;4.962;2023-03-01T16:07:47;18.50;;;17.50;;
36221;SDS011;22266;52.340;4.962;2023-03-01T16:10:14;15.50;;;14.00;;
36221;SDS011;22266;52.340;4.962;2023-03-01T16:12:40;15.00;;;13.50;;
36221;SDS011;22266;52.340;4.962;2023-03-01T16:15:14;17.50;;;13.00;;
36221;SDS011;22266;52.340;4.962;2023-03-01T16:17:44;12.50;;;11.50;;